Погода Реженти-Фейжона 2 недели

Сан-Паулу, Бразилия

21 июля-03 августа
  • 21июля
    Сегодня
    +15°
    +31°
    Ясно и безоблачно
    ВремяПогодаТемператураВлажностьДавлениеВетер, м/сВероятность осадков
    00:00Ясно и безоблачно+18°C47 %722 мм3.4 м/с5 %
    03:00Ясно и безоблачно+17°C51 %722 мм3.7 м/с5 %
    06:00Ясно и безоблачно+16°C53 %722 мм2.8 м/с5 %
    09:00Ясно и безоблачно+18°C57 %724 мм3.4 м/с5 %
    12:00Ясно и безоблачно+26°C41 %724 мм3.7 м/с5 %
    15:00Ясно и безоблачно+30°C31 %722 мм2.1 м/с5 %
    18:00Ясно и безоблачно+26°C49 %721 мм2.1 м/с5 %
    21:00Ясно и безоблачно+20°C65 %722 мм3.1 м/с5 %
  • 22июля
    Понедельник
    +15°
    +31°
    Ясно и безоблачно
    ВремяПогодаТемператураВлажностьДавлениеВетер, м/сВероятность осадков
    00:00Ясно и безоблачно+19°C68 %723 мм3.4 м/с5 %
    03:00Ясно и безоблачно+18°C76 %722 мм3.4 м/с5 %
    06:00Ясно и безоблачно+16°C85 %722 мм3.0 м/с5 %
    09:00Ясно и безоблачно+20°C69 %724 мм2.9 м/с5 %
    12:00Ясно и безоблачно+28°C38 %725 мм3.1 м/с5 %
    15:00Ясно и безоблачно+30°C31 %723 мм1.6 м/с5 %
    18:00Ясно и безоблачно+26°C46 %723 мм2.1 м/с5 %
    21:00Ясно и безоблачно+21°C49 %723 мм3.0 м/с5 %
  • 23июля
    Вторник
    +16°
    +32°
    Ясно и безоблачно
    ВремяПогодаТемператураВлажностьДавлениеВетер, м/сВероятность осадков
    00:00Ясно и безоблачно+20°C56 %723 мм3.4 м/с5 %
    03:00Ясно и безоблачно+18°C61 %723 мм3.5 м/с5 %
    06:00Ясно и безоблачно+16°C65 %723 мм3.1 м/с5 %
    09:00Ясно и безоблачно+19°C58 %725 мм3.3 м/с5 %
    12:00Ясно и безоблачно+28°C37 %725 мм3.9 м/с5 %
    15:00Ясно и безоблачно+31°C27 %723 мм2.9 м/с5 %
    18:00Практически безоблачно+27°C44 %722 мм2.1 м/с5 %
    21:00Ясно и безоблачно+21°C48 %722 мм3.4 м/с5 %
  • 24июля
    Среда
    +16°
    +32°
    Небольшая облачность
    ВремяПогодаТемператураВлажностьДавлениеВетер, м/сВероятность осадков
    00:00Небольшая облачность+20°C53 %723 мм3.5 м/с5 %
    03:00Ясно и безоблачно+18°C53 %722 мм3.4 м/с5 %
    06:00Ясно и безоблачно+17°C56 %722 мм3.2 м/с5 %
    09:00Ясно и безоблачно+20°C51 %724 мм3.5 м/с5 %
    12:00Небольшая облачность+29°C33 %724 мм4.0 м/с5 %
    15:00Небольшая облачность+32°C29 %722 мм3.2 м/с5 %
    18:00Ясно и безоблачно+28°C43 %722 мм1.7 м/с5 %
    21:00Ясно и безоблачно+22°C47 %722 мм2.4 м/с5 %
  • 25июля
    Четверг
    +18°
    +33°
    Ясно и безоблачно
    ВремяПогодаТемператураВлажностьДавлениеВетер, м/сВероятность осадков
    00:00Ясно и безоблачно+21°C55 %722 мм3.0 м/с5 %
    03:00Ясно и безоблачно+19°C55 %721 мм3.0 м/с5 %
    06:00Ясно и безоблачно+17°C61 %721 мм2.6 м/с5 %
    09:00Ясно и безоблачно+21°C53 %723 мм2.8 м/с5 %
    12:00Ясно и безоблачно+30°C33 %723 мм4.1 м/с5 %
    15:00Ясно и безоблачно+33°C27 %721 мм3.2 м/с5 %
    18:00Ясно и безоблачно+30°C38 %721 мм0.2 м/с5 %
    21:00Ясно и безоблачно+23°C57 %720 мм1.9 м/с5 %
Мы используем cookies
Соглашаюсь